sensor_id;sensor_type;location;lat;lon;timestamp;pressure;altitude;pressure_sealevel;temperature;humidity
16016;BME280;8112;53.592;10.184;2023-04-29T00:04:48;100823.81;;;8.70;100.00
16016;BME280;8112;53.592;10.184;2023-04-29T00:09:52;100821.78;;;8.58;100.00
16016;BME280;8112;53.592;10.184;2023-04-29T00:14:53;100823.28;;;8.45;100.00
16016;BME280;8112;53.592;10.184;2023-04-29T00:19:55;100821.72;;;8.40;100.00
16016;BME280;8112;53.592;10.184;2023-04-29T00:24:58;100830.09;;;8.49;100.00
16016;BME280;8112;53.592;10.184;2023-04-29T00:30:00;100836.19;;;8.49;100.00
16016;BME280;8112;53.592;10.184;2023-04-29T00:35:03;100836.75;;;8.56;100.00
16016;BME280;8112;53.592;10.184;2023-04-29T00:40:08;100836.34;;;8.46;100.00
16016;BME280;8112;53.592;10.184;2023-04-29T00:45:10;100844.03;;;8.51;100.00
16016;BME280;8112;53.592;10.184;2023-04-29T00:50:12;100845.66;;;8.53;100.00
16016;BME280;8112;53.592;10.184;2023-04-29T00:55:15;100857.19;;;8.49;100.00
16016;BME280;8112;53.592;10.184;2023-04-29T01:00:18;100862.50;;;8.30;100.00
16016;BME280;8112;53.592;10.184;2023-04-29T01:05:20;100862.75;;;8.43;100.00
16016;BME280;8112;53.592;10.184;2023-04-29T01:10:26;100860.47;;;8.35;100.00
16016;BME280;8112;53.592;10.184;2023-04-29T01:15:32;100875.25;;;8.38;100.00
16016;BME280;8112;53.592;10.184;2023-04-29T01:20:36;100887.47;;;8.39;100.00
16016;BME280;8112;53.592;10.184;2023-04-29T01:25:39;100889.56;;;8.31;100.00
16016;BME280;8112;53.592;10.184;2023-04-29T01:30:51;100878.81;;;8.37;100.00
16016;BME280;8112;53.592;10.184;2023-04-29T01:36:07;100893.84;;;8.33;100.00
16016;BME280;8112;53.592;10.184;2023-04-29T01:41:15;100901.16;;;8.26;100.00
16016;BME280;8112;53.592;10.184;2023-04-29T01:46:23;100911.81;;;8.23;100.00
16016;BME280;8112;53.592;10.184;2023-04-29T01:51:28;100910.81;;;8.26;100.00
16016;BME280;8112;53.592;10.184;2023-04-29T01:56:32;100916.44;;;8.18;100.00
16016;BME280;8112;53.592;10.184;2023-04-29T02:01:43;100907.63;;;8.19;100.00
16016;BME280;8112;53.592;10.184;2023-04-29T02:06:45;100912.44;;;8.28;100.00
16016;BME280;8112;53.592;10.184;2023-04-29T02:11:48;100930.75;;;8.30;100.00
16016;BME280;8112;53.592;10.184;2023-04-29T02:16:50;100939.69;;;8.26;100.00
16016;BME280;8112;53.592;10.184;2023-04-29T02:21:52;100946.81;;;8.24;100.00
16016;BME280;8112;53.592;10.184;2023-04-29T02:26:55;100940.69;;;8.23;100.00
16016;BME280;8112;53.592;10.184;2023-04-29T02:31:56;100950.13;;;8.27;100.00
16016;BME280;8112;53.592;10.184;2023-04-29T02:36:58;100955.16;;;8.32;100.00
16016;BME280;8112;53.592;10.184;2023-04-29T02:42:01;100964.25;;;8.25;100.00
16016;BME280;8112;53.592;10.184;2023-04-29T02:47:03;100978.03;;;8.30;100.00
16016;BME280;8112;53.592;10.184;2023-04-29T02:52:05;100979.19;;;8.23;100.00
16016;BME280;8112;53.592;10.184;2023-04-29T02:57:10;100983.56;;;8.24;100.00
16016;BME280;8112;53.592;10.184;2023-04-29T03:02:11;100976.88;;;8.17;100.00
16016;BME280;8112;53.592;10.184;2023-04-29T03:07:14;100986.09;;;8.06;100.00
16016;BME280;8112;53.592;10.184;2023-04-29T03:12:18;100994.16;;;8.02;100.00
16016;BME280;8112;53.592;10.184;2023-04-29T03:17:20;100993.56;;;7.95;100.00
16016;BME280;8112;53.592;10.184;2023-04-29T03:22:22;101000.66;;;7.93;100.00
16016;BME280;8112;53.592;10.184;2023-04-29T03:27:25;101007.63;;;7.94;100.00
16016;BME280;8112;53.592;10.184;2023-04-29T03:32:27;101004.06;;;7.95;100.00
16016;BME280;8112;53.592;10.184;2023-04-29T03:37:28;101021.78;;;7.90;100.00
16016;BME280;8112;53.592;10.184;2023-04-29T03:42:44;101024.47;;;7.88;100.00
16016;BME280;8112;53.592;10.184;2023-04-29T03:47:46;101024.78;;;7.80;100.00
16016;BME280;8112;53.592;10.184;2023-04-29T03:52:48;101029.53;;;7.72;100.00
16016;BME280;8112;53.592;10.184;2023-04-29T03:57:53;101031.59;;;7.64;100.00
16016;BME280;8112;53.592;10.184;2023-04-29T04:02:56;101037.03;;;7.59;100.00
16016;BME280;8112;53.592;10.184;2023-04-29T04:07:58;101044.53;;;7.48;100.00
16016;BME280;8112;53.592;10.184;2023-04-29T04:13:08;101053.59;;;7.61;100.00
16016;BME280;8112;53.592;10.184;2023-04-29T04:18:14;101075.50;;;7.81;100.00
16016;BME280;8112;53.592;10.184;2023-04-29T04:23:16;101078.97;;;7.81;100.00
16016;BME280;8112;53.592;10.184;2023-04-29T04:28:21;101088.69;;;7.79;100.00
16016;BME280;8112;53.592;10.184;2023-04-29T04:33:33;101092.09;;;7.81;100.00
16016;BME280;8112;53.592;10.184;2023-04-29T04:38:36;101099.72;;;7.88;100.00
16016;BME280;8112;53.592;10.184;2023-04-29T04:43:45;101093.94;;;7.79;100.00
16016;BME280;8112;53.592;10.184;2023-04-29T04:49:05;101110.06;;;7.70;100.00
16016;BME280;8112;53.592;10.184;2023-04-29T04:54:14;101121.88;;;7.80;100.00
16016;BME280;8112;53.592;10.184;2023-04-29T04:59:18;101124.31;;;7.85;100.00
16016;BME280;8112;53.592;10.184;2023-04-29T05:04:36;101137.13;;;7.93;100.00
16016;BME280;8112;53.592;10.184;2023-04-29T05:09:38;101140.28;;;8.01;100.00
16016;BME280;8112;53.592;10.184;2023-04-29T05:14:42;101149.53;;;8.10;100.00
16016;BME280;8112;53.592;10.184;2023-04-29T05:19:44;101142.97;;;8.20;100.00
16016;BME280;8112;53.592;10.184;2023-04-29T05:24:49;101153.53;;;8.39;100.00
16016;BME280;8112;53.592;10.184;2023-04-29T05:29:56;101161.84;;;8.51;100.00
16016;BME280;8112;53.592;10.184;2023-04-29T05:34:58;101161.97;;;8.68;100.00
16016;BME280;8112;53.592;10.184;2023-04-29T05:40:01;101155.09;;;8.85;100.00
16016;BME280;8112;53.592;10.184;2023-04-29T05:45:08;101157.03;;;9.01;100.00
16016;BME280;8112;53.592;10.184;2023-04-29T05:50:11;101145.72;;;9.18;100.00
16016;BME280;8112;53.592;10.184;2023-04-29T05:55:13;101148.06;;;9.24;100.00
16016;BME280;8112;53.592;10.184;2023-04-29T06:00:18;101145.44;;;9.43;100.00
16016;BME280;8112;53.592;10.184;2023-04-29T06:05:20;101143.94;;;9.57;100.00
16016;BME280;8112;53.592;10.184;2023-04-29T06:10:53;101148.44;;;9.72;100.00
16016;BME280;8112;53.592;10.184;2023-04-29T06:15:58;101143.81;;;10.30;100.00
16016;BME280;8112;53.592;10.184;2023-04-29T06:21:06;101145.19;;;10.37;100.00
16016;BME280;8112;53.592;10.184;2023-04-29T06:26:08;101140.50;;;10.44;100.00
16016;BME280;8112;53.592;10.184;2023-04-29T06:31:12;101146.84;;;10.58;100.00
16016;BME280;8112;53.592;10.184;2023-04-29T06:36:15;101144.91;;;10.61;100.00
16016;BME280;8112;53.592;10.184;2023-04-29T06:41:17;101141.50;;;10.41;100.00
16016;BME280;8112;53.592;10.184;2023-04-29T06:46:39;101138.03;;;10.41;100.00
16016;BME280;8112;53.592;10.184;2023-04-29T06:51:50;101136.28;;;10.40;100.00
16016;BME280;8112;53.592;10.184;2023-04-29T06:56:53;101149.78;;;10.51;100.00
16016;BME280;8112;53.592;10.184;2023-04-29T07:01:56;101159.91;;;10.59;100.00
16016;BME280;8112;53.592;10.184;2023-04-29T07:06:59;101166.41;;;10.69;100.00
16016;BME280;8112;53.592;10.184;2023-04-29T07:12:01;101178.06;;;10.99;100.00
16016;BME280;8112;53.592;10.184;2023-04-29T07:17:05;101154.91;;;10.88;100.00
16016;BME280;8112;53.592;10.184;2023-04-29T07:22:07;101173.63;;;11.00;100.00
16016;BME280;8112;53.592;10.184;2023-04-29T07:27:09;101161.16;;;11.19;100.00
16016;BME280;8112;53.592;10.184;2023-04-29T07:32:13;101175.34;;;11.33;100.00
16016;BME280;8112;53.592;10.184;2023-04-29T07:37:15;101183.81;;;11.55;100.00
16016;BME280;8112;53.592;10.184;2023-04-29T07:42:17;101187.03;;;11.61;100.00
16016;BME280;8112;53.592;10.184;2023-04-29T07:47:21;101197.56;;;11.77;100.00
16016;BME280;8112;53.592;10.184;2023-04-29T07:52:24;101193.13;;;12.09;100.00
16016;BME280;8112;53.592;10.184;2023-04-29T07:57:26;101203.41;;;11.98;100.00
16016;BME280;8112;53.592;10.184;2023-04-29T08:02:29;101199.22;;;12.26;100.00
16016;BME280;8112;53.592;10.184;2023-04-29T08:07:32;101205.66;;;12.51;100.00
16016;BME280;8112;53.592;10.184;2023-04-29T08:12:34;101217.75;;;12.55;100.00
16016;BME280;8112;53.592;10.184;2023-04-29T08:17:38;101214.75;;;12.76;100.00
16016;BME280;8112;53.592;10.184;2023-04-29T08:22:40;101226.97;;;12.93;100.00
16016;BME280;8112;53.592;10.184;2023-04-29T08:27:42;101240.50;;;13.03;100.00
16016;BME280;8112;53.592;10.184;2023-04-29T08:32:46;101235.75;;;13.08;100.00
16016;BME280;8112;53.592;10.184;2023-04-29T08:37:48;101249.00;;;13.22;100.00
16016;BME280;8112;53.592;10.184;2023-04-29T08:42:51;101258.44;;;13.41;100.00
16016;BME280;8112;53.592;10.184;2023-04-29T08:47:56;101261.09;;;13.56;100.00
16016;BME280;8112;53.592;10.184;2023-04-29T08:52:58;101270.88;;;13.68;100.00
16016;BME280;8112;53.592;10.184;2023-04-29T08:58:02;101265.78;;;13.65;100.00
16016;BME280;8112;53.592;10.184;2023-04-29T09:03:12;101275.50;;;14.06;100.00
16016;BME280;8112;53.592;10.184;2023-04-29T09:08:16;101265.16;;;13.89;100.00
16016;BME280;8112;53.592;10.184;2023-04-29T09:13:25;101255.47;;;14.02;100.00
16016;BME280;8112;53.592;10.184;2023-04-29T09:18:43;101261.34;;;14.48;100.00
16016;BME280;8112;53.592;10.184;2023-04-29T09:23:45;101272.00;;;14.33;100.00
16016;BME280;8112;53.592;10.184;2023-04-29T09:29:05;101282.56;;;14.61;100.00
16016;BME280;8112;53.592;10.184;2023-04-29T09:34:11;101283.03;;;14.80;100.00
16016;BME280;8112;53.592;10.184;2023-04-29T09:39:14;101273.81;;;14.86;100.00
16016;BME280;8112;53.592;10.184;2023-04-29T09:44:18;101283.38;;;15.02;100.00
16016;BME280;8112;53.592;10.184;2023-04-29T09:49:23;101292.06;;;15.17;100.00
16016;BME280;8112;53.592;10.184;2023-04-29T09:54:27;101297.06;;;15.34;100.00
16016;BME280;8112;53.592;10.184;2023-04-29T09:59:29;101293.69;;;15.19;100.00
16016;BME280;8112;53.592;10.184;2023-04-29T10:04:34;101293.09;;;15.27;100.00
16016;BME280;8112;53.592;10.184;2023-04-29T10:09:39;101301.81;;;14.77;100.00
16016;BME280;8112;53.592;10.184;2023-04-29T10:14:44;101290.81;;;15.22;100.00
16016;BME280;8112;53.592;10.184;2023-04-29T10:19:55;101290.13;;;14.80;100.00
16016;BME280;8112;53.592;10.184;2023-04-29T10:25:00;101296.19;;;15.34;100.00
16016;BME280;8112;53.592;10.184;2023-04-29T10:30:05;101291.03;;;15.70;100.00
16016;BME280;8112;53.592;10.184;2023-04-29T10:35:11;101290.47;;;15.77;100.00
16016;BME280;8112;53.592;10.184;2023-04-29T10:40:15;101290.56;;;16.13;100.00
16016;BME280;8112;53.592;10.184;2023-04-29T10:45:22;101306.56;;;16.49;100.00
16016;BME280;8112;53.592;10.184;2023-04-29T10:50:29;101299.63;;;16.82;100.00
16016;BME280;8112;53.592;10.184;2023-04-29T10:55:34;101296.22;;;17.16;97.36
16016;BME280;8112;53.592;10.184;2023-04-29T11:00:37;101305.50;;;17.78;91.54
16016;BME280;8112;53.592;10.184;2023-04-29T11:05:41;101307.56;;;17.86;90.39
16016;BME280;8112;53.592;10.184;2023-04-29T11:10:43;101310.69;;;17.91;84.39
16016;BME280;8112;53.592;10.184;2023-04-29T11:15:47;101301.72;;;18.36;84.32
16016;BME280;8112;53.592;10.184;2023-04-29T11:21:13;101308.53;;;18.29;78.86
16016;BME280;8112;53.592;10.184;2023-04-29T11:26:18;101316.44;;;17.75;84.45
16016;BME280;8112;53.592;10.184;2023-04-29T11:31:25;101330.34;;;17.22;86.47
16016;BME280;8112;53.592;10.184;2023-04-29T11:36:30;101331.44;;;16.72;90.69
16016;BME280;8112;53.592;10.184;2023-04-29T11:41:33;101340.16;;;17.67;92.15
16016;BME280;8112;53.592;10.184;2023-04-29T11:46:35;101331.22;;;17.22;91.38
16016;BME280;8112;53.592;10.184;2023-04-29T11:51:40;101336.78;;;17.31;87.49
16016;BME280;8112;53.592;10.184;2023-04-29T11:56:42;101342.53;;;16.66;87.95
16016;BME280;8112;53.592;10.184;2023-04-29T12:01:44;101343.38;;;16.31;94.94
16016;BME280;8112;53.592;10.184;2023-04-29T12:06:50;101325.03;;;16.75;91.69
16016;BME280;8112;53.592;10.184;2023-04-29T12:11:52;101334.97;;;17.31;91.19
16016;BME280;8112;53.592;10.184;2023-04-29T12:16:55;101334.72;;;18.03;83.29
16016;BME280;8112;53.592;10.184;2023-04-29T12:21:59;101334.06;;;17.88;75.32
16016;BME280;8112;53.592;10.184;2023-04-29T12:27:06;101347.31;;;17.55;74.63
16016;BME280;8112;53.592;10.184;2023-04-29T12:32:12;101342.25;;;17.52;78.60
16016;BME280;8112;53.592;10.184;2023-04-29T12:37:22;101345.22;;;17.13;84.44
16016;BME280;8112;53.592;10.184;2023-04-29T12:42:31;101350.94;;;17.20;83.69
16016;BME280;8112;53.592;10.184;2023-04-29T12:47:33;101339.53;;;17.06;88.19
16016;BME280;8112;53.592;10.184;2023-04-29T12:52:38;101344.44;;;16.88;84.83
16016;BME280;8112;53.592;10.184;2023-04-29T12:57:40;101338.00;;;17.61;84.79
16016;BME280;8112;53.592;10.184;2023-04-29T13:02:42;101363.19;;;17.79;76.96
16016;BME280;8112;53.592;10.184;2023-04-29T13:07:47;101343.53;;;18.03;73.55
16016;BME280;8112;53.592;10.184;2023-04-29T13:12:49;101343.78;;;17.89;73.62
16016;BME280;8112;53.592;10.184;2023-04-29T13:17:51;101341.91;;;18.01;71.39
16016;BME280;8112;53.592;10.184;2023-04-29T13:22:56;101356.88;;;17.23;73.45
16016;BME280;8112;53.592;10.184;2023-04-29T13:27:58;101343.41;;;17.93;79.86
16016;BME280;8112;53.592;10.184;2023-04-29T13:33:00;101332.03;;;17.23;83.54
16016;BME280;8112;53.592;10.184;2023-04-29T13:38:05;101358.56;;;17.24;88.42
16016;BME280;8112;53.592;10.184;2023-04-29T13:43:07;101357.72;;;17.47;88.48
16016;BME280;8112;53.592;10.184;2023-04-29T13:48:09;101367.06;;;17.41;80.17
16016;BME280;8112;53.592;10.184;2023-04-29T13:53:12;101368.03;;;17.29;75.78
16016;BME280;8112;53.592;10.184;2023-04-29T13:58:17;101365.31;;;17.17;77.26
16016;BME280;8112;53.592;10.184;2023-04-29T14:03:19;101375.91;;;16.94;75.11
16016;BME280;8112;53.592;10.184;2023-04-29T14:08:22;101385.22;;;17.24;75.52
16016;BME280;8112;53.592;10.184;2023-04-29T14:13:24;101374.44;;;17.37;72.77
16016;BME280;8112;53.592;10.184;2023-04-29T14:18:26;101382.31;;;17.50;74.35
16016;BME280;8112;53.592;10.184;2023-04-29T14:23:31;101389.34;;;17.63;74.58
16016;BME280;8112;53.592;10.184;2023-04-29T14:28:35;101390.06;;;17.99;69.29
16016;BME280;8112;53.592;10.184;2023-04-29T14:33:36;101410.91;;;17.48;75.91
16016;BME280;8112;53.592;10.184;2023-04-29T14:38:40;101403.28;;;17.78;76.76
16016;BME280;8112;53.592;10.184;2023-04-29T14:43:42;101424.44;;;17.22;76.41
16016;BME280;8112;53.592;10.184;2023-04-29T14:48:44;101426.66;;;17.51;76.34
16016;BME280;8112;53.592;10.184;2023-04-29T14:53:47;101420.84;;;17.69;75.22
16016;BME280;8112;53.592;10.184;2023-04-29T14:58:50;101427.91;;;18.16;69.18
16016;BME280;8112;53.592;10.184;2023-04-29T15:03:52;101430.78;;;17.90;66.67
16016;BME280;8112;53.592;10.184;2023-04-29T15:08:56;101433.78;;;18.42;68.83
16016;BME280;8112;53.592;10.184;2023-04-29T15:13:57;101448.34;;;16.62;73.56
16016;BME280;8112;53.592;10.184;2023-04-29T15:18:59;101434.09;;;16.63;80.92
16016;BME280;8112;53.592;10.184;2023-04-29T15:24:04;101453.94;;;15.57;89.48
16016;BME280;8112;53.592;10.184;2023-04-29T15:29:08;101458.38;;;15.31;97.75
16016;BME280;8112;53.592;10.184;2023-04-29T15:34:11;101461.38;;;14.99;100.00
16016;BME280;8112;53.592;10.184;2023-04-29T15:39:14;101470.47;;;14.81;100.00
16016;BME280;8112;53.592;10.184;2023-04-29T15:44:17;101468.34;;;16.92;100.00
16016;BME280;8112;53.592;10.184;2023-04-29T15:49:18;101461.22;;;15.94;100.00
16016;BME280;8112;53.592;10.184;2023-04-29T15:54:23;101474.56;;;15.79;100.00
16016;BME280;8112;53.592;10.184;2023-04-29T15:59:24;101480.63;;;16.07;100.00
16016;BME280;8112;53.592;10.184;2023-04-29T16:04:26;101493.78;;;17.57;99.19
16016;BME280;8112;53.592;10.184;2023-04-29T16:09:32;101471.84;;;19.00;84.18
16016;BME280;8112;53.592;10.184;2023-04-29T16:14:34;101485.44;;;20.03;74.44
16016;BME280;8112;53.592;10.184;2023-04-29T16:19:36;101493.41;;;18.64;69.20
16016;BME280;8112;53.592;10.184;2023-04-29T16:24:41;101499.50;;;18.55;70.51
16016;BME280;8112;53.592;10.184;2023-04-29T16:29:43;101505.47;;;17.07;71.77
16016;BME280;8112;53.592;10.184;2023-04-29T16:34:44;101508.13;;;15.54;88.85
16016;BME280;8112;53.592;10.184;2023-04-29T16:39:48;101511.34;;;14.50;100.00
16016;BME280;8112;53.592;10.184;2023-04-29T16:44:50;101513.63;;;13.83;100.00
16016;BME280;8112;53.592;10.184;2023-04-29T16:49:52;101524.13;;;13.40;100.00
16016;BME280;8112;53.592;10.184;2023-04-29T16:54:56;101531.75;;;13.14;100.00
16016;BME280;8112;53.592;10.184;2023-04-29T17:00:00;101532.13;;;12.92;100.00
16016;BME280;8112;53.592;10.184;2023-04-29T17:05:04;101537.50;;;12.90;100.00
16016;BME280;8112;53.592;10.184;2023-04-29T17:10:10;101547.66;;;12.82;100.00
16016;BME280;8112;53.592;10.184;2023-04-29T17:15:12;101549.94;;;12.56;100.00
16016;BME280;8112;53.592;10.184;2023-04-29T17:20:14;101557.69;;;12.59;100.00
16016;BME280;8112;53.592;10.184;2023-04-29T17:25:18;101544.06;;;12.51;100.00
16016;BME280;8112;53.592;10.184;2023-04-29T17:30:22;101553.69;;;12.36;100.00
16016;BME280;8112;53.592;10.184;2023-04-29T17:35:24;101560.75;;;12.02;100.00
16016;BME280;8112;53.592;10.184;2023-04-29T17:40:27;101565.69;;;11.73;100.00
16016;BME280;8112;53.592;10.184;2023-04-29T17:45:30;101576.94;;;11.59;100.00
16016;BME280;8112;53.592;10.184;2023-04-29T17:50:33;101576.31;;;11.36;100.00
16016;BME280;8112;53.592;10.184;2023-04-29T17:55:38;101587.13;;;11.30;100.00
16016;BME280;8112;53.592;10.184;2023-04-29T18:00:40;101594.75;;;10.99;100.00
16016;BME280;8112;53.592;10.184;2023-04-29T18:05:42;101598.47;;;10.95;100.00
16016;BME280;8112;53.592;10.184;2023-04-29T18:10:47;101601.22;;;10.73;100.00
16016;BME280;8112;53.592;10.184;2023-04-29T18:15:49;101601.56;;;10.65;100.00
16016;BME280;8112;53.592;10.184;2023-04-29T18:20:51;101617.38;;;10.46;100.00
16016;BME280;8112;53.592;10.184;2023-04-29T18:25:54;101622.50;;;10.28;100.00
16016;BME280;8112;53.592;10.184;2023-04-29T18:30:56;101630.91;;;10.16;100.00
16016;BME280;8112;53.592;10.184;2023-04-29T18:35:58;101630.84;;;9.96;100.00
16016;BME280;8112;53.592;10.184;2023-04-29T18:41:02;101637.25;;;9.91;100.00
16016;BME280;8112;53.592;10.184;2023-04-29T18:46:05;101639.03;;;9.68;100.00
16016;BME280;8112;53.592;10.184;2023-04-29T18:51:07;101647.44;;;9.55;100.00
16016;BME280;8112;53.592;10.184;2023-04-29T18:56:11;101653.63;;;9.54;100.00
16016;BME280;8112;53.592;10.184;2023-04-29T19:01:13;101664.06;;;9.34;100.00
16016;BME280;8112;53.592;10.184;2023-04-29T19:06:14;101671.44;;;9.24;100.00
16016;BME280;8112;53.592;10.184;2023-04-29T19:11:18;101678.59;;;9.20;100.00
16016;BME280;8112;53.592;10.184;2023-04-29T19:16:22;101679.19;;;9.05;100.00
16016;BME280;8112;53.592;10.184;2023-04-29T19:21:24;101683.75;;;9.00;100.00
16016;BME280;8112;53.592;10.184;2023-04-29T19:26:28;101705.38;;;8.82;100.00
16016;BME280;8112;53.592;10.184;2023-04-29T19:31:30;101711.16;;;8.68;100.00
16016;BME280;8112;53.592;10.184;2023-04-29T19:36:32;101713.00;;;8.65;100.00
16016;BME280;8112;53.592;10.184;2023-04-29T19:41:36;101720.44;;;8.53;100.00
16016;BME280;8112;53.592;10.184;2023-04-29T19:46:40;101721.47;;;8.48;100.00
16016;BME280;8112;53.592;10.184;2023-04-29T19:51:42;101724.34;;;8.40;100.00
16016;BME280;8112;53.592;10.184;2023-04-29T19:56:46;101731.13;;;8.20;100.00
16016;BME280;8112;53.592;10.184;2023-04-29T20:01:48;101735.84;;;8.10;100.00
16016;BME280;8112;53.592;10.184;2023-04-29T20:06:50;101742.25;;;8.02;100.00
16016;BME280;8112;53.592;10.184;2023-04-29T20:11:54;101749.31;;;7.99;100.00
16016;BME280;8112;53.592;10.184;2023-04-29T20:16:55;101753.25;;;7.84;100.00
16016;BME280;8112;53.592;10.184;2023-04-29T20:21:57;101762.28;;;7.76;100.00
16016;BME280;8112;53.592;10.184;2023-04-29T20:27:01;101767.91;;;7.63;100.00
16016;BME280;8112;53.592;10.184;2023-04-29T20:32:04;101775.09;;;7.56;100.00
16016;BME280;8112;53.592;10.184;2023-04-29T20:37:05;101770.25;;;7.43;100.00
16016;BME280;8112;53.592;10.184;2023-04-29T20:42:10;101786.94;;;7.40;100.00
16016;BME280;8112;53.592;10.184;2023-04-29T20:47:13;101786.38;;;7.28;100.00
16016;BME280;8112;53.592;10.184;2023-04-29T20:52:15;101794.44;;;7.21;100.00
16016;BME280;8112;53.592;10.184;2023-04-29T20:57:18;101799.25;;;7.06;100.00
16016;BME280;8112;53.592;10.184;2023-04-29T21:02:20;101805.31;;;7.08;100.00
16016;BME280;8112;53.592;10.184;2023-04-29T21:07:22;101811.56;;;7.03;100.00
16016;BME280;8112;53.592;10.184;2023-04-29T21:12:25;101818.09;;;6.86;100.00
16016;BME280;8112;53.592;10.184;2023-04-29T21:17:29;101820.81;;;6.83;100.00
16016;BME280;8112;53.592;10.184;2023-04-29T21:22:31;101819.19;;;6.79;100.00
16016;BME280;8112;53.592;10.184;2023-04-29T21:27:36;101826.34;;;6.70;100.00
16016;BME280;8112;53.592;10.184;2023-04-29T21:32:38;101830.06;;;6.62;100.00
16016;BME280;8112;53.592;10.184;2023-04-29T21:37:40;101831.03;;;6.58;100.00
16016;BME280;8112;53.592;10.184;2023-04-29T21:42:44;101838.22;;;6.49;100.00
16016;BME280;8112;53.592;10.184;2023-04-29T21:47:46;101835.66;;;6.48;100.00
16016;BME280;8112;53.592;10.184;2023-04-29T21:52:48;101839.44;;;6.34;100.00
16016;BME280;8112;53.592;10.184;2023-04-29T21:57:52;101849.91;;;6.34;100.00
16016;BME280;8112;53.592;10.184;2023-04-29T22:02:54;101850.81;;;6.33;100.00
16016;BME280;8112;53.592;10.184;2023-04-29T22:07:58;101850.31;;;6.17;100.00
16016;BME280;8112;53.592;10.184;2023-04-29T22:13:02;101855.66;;;6.12;100.00
16016;BME280;8112;53.592;10.184;2023-04-29T22:18:08;101853.25;;;6.00;100.00
16016;BME280;8112;53.592;10.184;2023-04-29T22:23:11;101855.72;;;6.09;100.00
16016;BME280;8112;53.592;10.184;2023-04-29T22:28:17;101867.19;;;6.04;100.00
16016;BME280;8112;53.592;10.184;2023-04-29T22:33:19;101871.50;;;6.06;100.00
16016;BME280;8112;53.592;10.184;2023-04-29T22:38:22;101874.03;;;6.09;100.00
16016;BME280;8112;53.592;10.184;2023-04-29T22:43:26;101870.66;;;6.04;100.00
16016;BME280;8112;53.592;10.184;2023-04-29T22:48:28;101884.78;;;5.94;100.00
16016;BME280;8112;53.592;10.184;2023-04-29T22:53:32;101889.38;;;5.82;100.00
16016;BME280;8112;53.592;10.184;2023-04-29T22:58:36;101880.78;;;5.77;100.00
16016;BME280;8112;53.592;10.184;2023-04-29T23:03:38;101881.00;;;5.65;100.00
16016;BME280;8112;53.592;10.184;2023-04-29T23:08:41;101895.78;;;5.67;100.00
16016;BME280;8112;53.592;10.184;2023-04-29T23:13:46;101898.63;;;5.56;100.00
16016;BME280;8112;53.592;10.184;2023-04-29T23:18:52;101890.16;;;5.42;100.00
16016;BME280;8112;53.592;10.184;2023-04-29T23:23:54;101892.91;;;5.36;100.00
16016;BME280;8112;53.592;10.184;2023-04-29T23:28:57;101894.91;;;5.23;100.00
16016;BME280;8112;53.592;10.184;2023-04-29T23:34:00;101895.94;;;5.11;100.00
16016;BME280;8112;53.592;10.184;2023-04-29T23:39:02;101898.53;;;5.14;100.00
16016;BME280;8112;53.592;10.184;2023-04-29T23:44:06;101904.59;;;5.14;100.00
16016;BME280;8112;53.592;10.184;2023-04-29T23:49:08;101899.50;;;5.07;100.00
16016;BME280;8112;53.592;10.184;2023-04-29T23:54:12;101899.56;;;5.05;100.00
16016;BME280;8112;53.592;10.184;2023-04-29T23:59:15;101908.31;;;5.01;100.00
